createdAt,value
2022-10-09T00:01:13.309Z,4.57
2022-10-09T00:03:59.636Z,4.50
2022-10-09T00:06:45.292Z,4.18
2022-10-09T00:09:31.123Z,4.03
2022-10-09T00:12:16.643Z,5.05
2022-10-09T00:15:02.238Z,4.60
2022-10-09T00:17:47.939Z,4.82
2022-10-09T00:20:39.824Z,5.07
2022-10-09T00:23:25.873Z,5.00
2022-10-09T00:26:12.100Z,4.43
2022-10-09T00:28:57.892Z,4.95
2022-10-09T00:31:43.139Z,4.78
2022-10-09T00:34:28.734Z,5.43
2022-10-09T00:37:14.396Z,5.38
2022-10-09T00:40:00.036Z,5.50
2022-10-09T00:42:45.891Z,4.68
2022-10-09T00:45:31.874Z,4.75
2022-10-09T00:48:18.708Z,5.07
2022-10-09T00:51:04.064Z,5.68
2022-10-09T00:53:50.183Z,5.13
2022-10-09T00:56:35.887Z,5.18
2022-10-09T00:59:22.591Z,4.88
2022-10-09T01:02:08.173Z,4.95
2022-10-09T01:04:53.652Z,5.05
2022-10-09T01:07:58.921Z,5.90
2022-10-09T01:11:04.253Z,5.22
2022-10-09T01:14:03.177Z,5.57
2022-10-09T01:17:07.709Z,5.93
2022-10-09T01:20:04.884Z,5.05
2022-10-09T01:23:07.991Z,4.75
2022-10-09T01:26:22.230Z,5.63
2022-10-09T01:29:10.232Z,5.20
2022-10-09T01:31:57.344Z,4.70
2022-10-09T01:34:44.461Z,4.40
2022-10-09T01:37:31.607Z,4.40
2022-10-09T01:40:18.078Z,4.00
2022-10-09T01:43:04.255Z,4.00
2022-10-09T01:45:49.875Z,4.25
2022-10-09T01:48:35.946Z,4.13
2022-10-09T01:51:27.668Z,4.32
2022-10-09T01:54:14.657Z,4.60
2022-10-09T01:57:03.522Z,4.60
2022-10-09T01:59:51.100Z,5.20
2022-10-09T02:02:37.359Z,4.75
2022-10-09T02:05:26.497Z,5.15
2022-10-09T02:08:17.607Z,4.47
2022-10-09T02:11:03.780Z,5.13
2022-10-09T02:13:52.986Z,7.60
2022-10-09T02:16:41.888Z,6.80
2022-10-09T02:19:38.807Z,6.15
2022-10-09T02:22:30.486Z,7.60
2022-10-09T02:25:18.392Z,7.05
2022-10-09T02:28:04.655Z,6.55
2022-10-09T02:31:03.579Z,6.43
2022-10-09T02:34:00.746Z,6.40
2022-10-09T02:36:47.513Z,5.50
2022-10-09T02:39:33.310Z,5.38
2022-10-09T02:42:18.410Z,5.25
2022-10-09T02:45:04.239Z,5.18
2022-10-09T02:47:50.097Z,5.10
2022-10-09T02:50:36.247Z,5.38
2022-10-09T02:53:21.926Z,6.45
2022-10-09T02:56:07.660Z,6.47
2022-10-09T02:58:53.736Z,6.43
2022-10-09T03:01:39.753Z,7.25
2022-10-09T03:04:25.078Z,6.45
2022-10-09T03:07:11.321Z,7.15
2022-10-09T03:09:58.280Z,6.20
2022-10-09T03:12:43.446Z,5.70
2022-10-09T03:15:29.154Z,4.95
2022-10-09T03:18:14.453Z,4.32
2022-10-09T03:21:00.272Z,3.90
2022-10-09T03:23:46.147Z,4.20
2022-10-09T03:26:31.433Z,4.55
2022-10-09T03:29:17.042Z,4.50
2022-10-09T03:32:02.546Z,4.63
2022-10-09T03:34:48.159Z,4.45
2022-10-09T03:37:33.869Z,4.65
2022-10-09T03:40:19.263Z,4.60
2022-10-09T03:43:05.019Z,4.57
2022-10-09T03:45:50.839Z,4.15
2022-10-09T03:48:36.755Z,3.13
2022-10-09T03:51:22.243Z,2.97
2022-10-09T03:54:07.845Z,3.17
2022-10-09T03:56:53.484Z,2.47
2022-10-09T03:59:39.184Z,2.20
2022-10-09T04:02:24.761Z,2.58
2022-10-09T04:05:10.243Z,2.78
2022-10-09T04:07:56.183Z,2.35
2022-10-09T04:10:41.753Z,2.30
2022-10-09T04:13:27.202Z,2.33
2022-10-09T04:16:12.877Z,2.30
2022-10-09T04:18:58.525Z,2.40
2022-10-09T04:21:43.818Z,2.40
2022-10-09T04:24:29.582Z,2.50
2022-10-09T04:27:14.998Z,2.50
2022-10-09T04:30:00.612Z,3.10
2022-10-09T04:32:48.186Z,2.50
2022-10-09T04:35:34.245Z,2.50
2022-10-09T04:38:21.111Z,2.40
2022-10-09T04:41:07.881Z,2.67
2022-10-09T04:43:56.755Z,2.60
2022-10-09T04:46:42.342Z,2.33
2022-10-09T04:49:27.983Z,2.60
2022-10-09T04:52:13.563Z,2.20
2022-10-09T04:54:59.358Z,2.28
2022-10-09T04:57:44.587Z,2.20
2022-10-09T05:00:30.122Z,2.20
2022-10-09T05:03:15.848Z,2.28
2022-10-09T05:06:06.737Z,1.90
2022-10-09T05:08:53.001Z,2.45
2022-10-09T05:11:42.508Z,2.50
2022-10-09T05:14:28.599Z,2.55
2022-10-09T05:17:15.092Z,2.55
2022-10-09T05:20:00.695Z,2.50
2022-10-09T05:22:47.758Z,2.50
2022-10-09T05:25:33.556Z,2.55
2022-10-09T05:28:19.425Z,2.50
2022-10-09T05:31:07.140Z,3.35
2022-10-09T05:33:52.961Z,2.50
2022-10-09T05:36:38.434Z,2.65
2022-10-09T05:39:24.110Z,2.88
2022-10-09T05:42:09.693Z,2.85
2022-10-09T05:44:55.618Z,2.67
2022-10-09T05:47:41.016Z,2.90
2022-10-09T05:50:26.788Z,2.33
2022-10-09T05:53:12.669Z,2.30
2022-10-09T05:56:01.590Z,1.80
2022-10-09T05:58:54.655Z,2.30
2022-10-09T06:01:42.460Z,2.78
2022-10-09T06:04:28.052Z,2.90
2022-10-09T06:07:13.388Z,3.20
2022-10-09T06:09:59.063Z,2.80
2022-10-09T06:12:44.742Z,2.40
2022-10-09T06:15:30.252Z,2.65
2022-10-09T06:18:15.539Z,2.55
2022-10-09T06:21:02.319Z,2.40
2022-10-09T06:23:55.742Z,2.40
2022-10-09T06:26:41.348Z,2.65
2022-10-09T06:29:27.080Z,2.70
2022-10-09T06:32:12.650Z,2.55
2022-10-09T06:34:58.017Z,2.35
2022-10-09T06:37:43.783Z,2.20
2022-10-09T06:40:29.161Z,2.15
2022-10-09T06:43:14.919Z,2.10
2022-10-09T06:46:05.355Z,2.20
2022-10-09T06:48:51.431Z,2.30
2022-10-09T06:51:38.336Z,2.30
2022-10-09T06:54:23.641Z,2.30
2022-10-09T06:57:09.416Z,2.30
2022-10-09T06:59:55.211Z,2.40
2022-10-09T07:02:44.179Z,2.20
2022-10-09T07:05:29.504Z,2.42
2022-10-09T07:08:15.223Z,2.53
2022-10-09T07:11:00.539Z,2.45
2022-10-09T07:13:46.047Z,2.88
2022-10-09T07:16:37.700Z,3.53
2022-10-09T07:19:23.035Z,3.35
2022-10-09T07:22:11.631Z,2.97
2022-10-09T07:24:57.384Z,2.95
2022-10-09T07:27:42.812Z,4.40
2022-10-09T07:30:30.090Z,3.80
2022-10-09T07:33:15.827Z,4.43
2022-10-09T07:36:04.086Z,4.65
2022-10-09T07:38:51.624Z,4.85
2022-10-09T07:41:37.529Z,5.15
2022-10-09T07:44:22.861Z,5.20
2022-10-09T07:47:08.640Z,5.00
2022-10-09T07:49:54.390Z,5.82
2022-10-09T07:52:40.182Z,6.25
2022-10-09T07:55:25.576Z,6.20
2022-10-09T07:58:11.236Z,6.30
2022-10-09T08:00:56.627Z,6.70
2022-10-09T08:03:42.365Z,6.50
2022-10-09T08:06:28.808Z,5.97
2022-10-09T08:09:14.499Z,5.93
2022-10-09T08:12:00.166Z,5.60
2022-10-09T08:14:48.974Z,5.22
2022-10-09T08:17:34.411Z,4.85
2022-10-09T08:20:20.297Z,5.57
2022-10-09T08:23:06.826Z,4.85
2022-10-09T08:25:52.556Z,4.63
2022-10-09T08:28:38.054Z,4.78
2022-10-09T08:31:24.405Z,4.60
2022-10-09T08:34:11.524Z,4.32
2022-10-09T08:36:57.031Z,3.97
2022-10-09T08:39:42.628Z,3.83
2022-10-09T08:42:37.807Z,3.90
2022-10-09T08:45:23.661Z,3.70
2022-10-09T08:48:16.044Z,4.15
2022-10-09T08:51:03.251Z,3.83
2022-10-09T08:54:03.384Z,3.17
2022-10-09T08:56:50.799Z,3.38
2022-10-09T08:59:36.596Z,3.00
2022-10-09T09:02:47.298Z,8.30
2022-10-09T09:05:48.630Z,3.20
2022-10-09T09:08:44.643Z,3.20
2022-10-09T09:11:46.322Z,3.13
2022-10-09T09:14:54.725Z,3.03
2022-10-09T09:18:00.522Z,2.80
2022-10-09T09:23:43.205Z,3.10
2022-10-09T09:26:29.215Z,2.67
2022-10-09T09:29:18.159Z,2.70
2022-10-09T09:32:04.554Z,2.25
2022-10-09T09:34:50.779Z,2.58
2022-10-09T09:37:37.630Z,2.40
2022-10-09T09:40:46.734Z,2.10
2022-10-09T09:43:32.690Z,1.90
2022-10-09T09:46:23.107Z,2.17
2022-10-09T09:49:21.069Z,1.90
2022-10-09T09:52:09.306Z,1.90
2022-10-09T09:54:57.430Z,2.30
2022-10-09T09:57:46.299Z,2.00
2022-10-09T10:00:32.666Z,2.10
2022-10-09T10:03:19.555Z,2.65
2022-10-09T10:06:05.229Z,2.60
2022-10-09T10:09:05.385Z,2.15
2022-10-09T10:11:59.914Z,2.20
2022-10-09T10:14:50.625Z,2.38
2022-10-09T10:17:37.365Z,2.00
2022-10-09T10:20:23.533Z,1.90
2022-10-09T10:23:32.138Z,3.10
2022-10-09T10:26:23.331Z,1.70
2022-10-09T10:29:37.611Z,1.40
2022-10-09T10:32:55.145Z,1.42
2022-10-09T10:35:43.506Z,1.40
2022-10-09T10:38:49.273Z,1.30
2022-10-09T10:41:43.048Z,1.20
2022-10-09T10:44:52.521Z,1.30
2022-10-09T10:47:43.786Z,1.10
2022-10-09T10:50:41.250Z,1.40
2022-10-09T10:53:41.326Z,1.23
2022-10-09T10:56:34.267Z,1.08
2022-10-09T10:59:22.848Z,1.20
2022-10-09T11:02:41.048Z,1.83
2022-10-09T11:05:36.462Z,1.25
2022-10-09T11:08:45.904Z,1.20
2022-10-09T11:11:45.321Z,1.40
2022-10-09T11:15:07.013Z,1.30
2022-10-09T11:18:10.515Z,1.40
2022-10-09T11:21:17.142Z,1.38
2022-10-09T11:24:17.314Z,1.83
2022-10-09T11:27:09.811Z,1.20
2022-10-09T11:30:05.801Z,1.00
2022-10-09T11:32:57.556Z,1.35
2022-10-09T11:35:51.127Z,1.20
2022-10-09T11:38:44.110Z,1.45
2022-10-09T11:41:31.194Z,1.13
2022-10-09T11:44:23.372Z,1.25
2022-10-09T11:47:33.812Z,1.17
2022-10-09T11:51:10.242Z,1.40
2022-10-09T11:57:05.163Z,1.17
2022-10-09T12:00:05.311Z,1.20
2022-10-09T12:02:59.608Z,1.00
2022-10-09T12:05:47.620Z,1.55
2022-10-09T12:08:33.226Z,1.08
2022-10-09T12:11:19.961Z,1.05
2022-10-09T12:14:08.256Z,1.30
2022-10-09T12:16:54.818Z,1.15
2022-10-09T12:19:42.156Z,1.25
2022-10-09T12:22:34.531Z,1.38
2022-10-09T12:25:38.750Z,1.05
2022-10-09T12:28:33.471Z,1.25
2022-10-09T12:31:26.553Z,0.93
2022-10-09T12:34:32.700Z,1.30
2022-10-09T12:37:20.724Z,1.20
2022-10-09T12:40:30.421Z,1.08
2022-10-09T12:43:18.365Z,1.20
2022-10-09T12:46:03.967Z,1.20
2022-10-09T12:48:49.495Z,1.00
2022-10-09T12:51:34.619Z,1.30
2022-10-09T12:54:20.548Z,1.13
2022-10-09T12:57:06.064Z,1.10
2022-10-09T12:59:52.150Z,1.30
2022-10-09T13:02:37.528Z,1.00
2022-10-09T13:05:22.897Z,0.90
2022-10-09T13:08:24.758Z,1.00
2022-10-09T13:11:24.815Z,1.33
2022-10-09T13:14:27.037Z,1.50
2022-10-09T13:17:29.710Z,1.27
2022-10-09T13:20:14.826Z,1.00
2022-10-09T13:23:04.206Z,1.10
2022-10-09T13:25:51.797Z,1.20
2022-10-09T13:28:37.258Z,1.42
2022-10-09T13:31:22.821Z,1.20
2022-10-09T13:34:13.464Z,1.23
2022-10-09T13:36:59.104Z,1.20
2022-10-09T13:39:44.702Z,1.80
2022-10-09T13:42:37.031Z,1.50
2022-10-09T13:45:22.943Z,1.20
2022-10-09T13:48:08.383Z,1.30
2022-10-09T13:50:54.255Z,1.10
2022-10-09T13:53:39.734Z,1.40
2022-10-09T13:56:26.153Z,1.25
2022-10-09T13:59:12.191Z,1.40
2022-10-09T14:01:58.185Z,1.52
2022-10-09T14:04:43.492Z,1.40
2022-10-09T14:07:29.069Z,1.30
2022-10-09T14:10:14.438Z,1.50
2022-10-09T14:12:59.912Z,1.48
2022-10-09T14:15:45.588Z,1.55
2022-10-09T14:18:30.964Z,1.40
2022-10-09T14:21:16.428Z,1.67
2022-10-09T14:24:03.522Z,1.70
2022-10-09T14:26:51.633Z,1.63
2022-10-09T14:29:38.412Z,1.40
2022-10-09T14:32:24.339Z,1.45
2022-10-09T14:35:10.464Z,1.60
2022-10-09T14:37:56.351Z,1.70
2022-10-09T14:40:43.588Z,1.60
2022-10-09T14:43:30.331Z,1.60
2022-10-09T14:46:17.863Z,1.65
2022-10-09T14:49:07.359Z,1.70
2022-10-09T14:51:54.975Z,1.60
2022-10-09T14:54:41.048Z,1.70
2022-10-09T14:57:28.387Z,1.67
2022-10-09T15:00:15.851Z,1.73
2022-10-09T15:03:01.283Z,1.70
2022-10-09T15:05:46.672Z,1.70
2022-10-09T15:08:33.911Z,1.75
2022-10-09T15:11:19.480Z,1.58
2022-10-09T15:14:05.195Z,1.60
2022-10-09T15:16:50.581Z,1.73
2022-10-09T15:19:36.117Z,1.70
2022-10-09T15:22:21.559Z,1.80
2022-10-09T15:25:08.289Z,1.90
2022-10-09T15:27:54.901Z,1.75
2022-10-09T15:30:50.453Z,1.65
2022-10-09T15:33:35.589Z,2.25
2022-10-09T15:36:22.172Z,1.85
2022-10-09T15:39:08.987Z,2.08
2022-10-09T15:41:54.602Z,1.80
2022-10-09T15:44:42.353Z,1.92
2022-10-09T15:47:50.014Z,1.90
2022-10-09T15:50:37.640Z,1.80
2022-10-09T15:53:24.480Z,2.10
2022-10-09T15:56:14.312Z,2.10
2022-10-09T15:58:59.997Z,2.00
2022-10-09T16:01:45.649Z,2.00
2022-10-09T16:04:31.119Z,1.75
2022-10-09T16:07:16.216Z,2.53
2022-10-09T16:10:01.646Z,2.10
2022-10-09T16:12:47.523Z,2.13
2022-10-09T16:15:33.273Z,2.08
2022-10-09T16:18:21.829Z,2.33
2022-10-09T16:21:09.454Z,1.70
2022-10-09T16:23:59.042Z,1.88
2022-10-09T16:26:45.095Z,2.00
2022-10-09T16:29:30.723Z,1.77
2022-10-09T16:32:16.395Z,1.85
2022-10-09T16:35:01.852Z,2.00
2022-10-09T16:37:47.456Z,1.95
2022-10-09T16:40:57.527Z,2.03
2022-10-09T16:49:20.071Z,3.30
2022-10-09T16:52:08.505Z,3.03
2022-10-09T16:54:58.253Z,3.15
2022-10-09T16:57:46.288Z,2.15
2022-10-09T17:00:31.927Z,2.40
2022-10-09T17:03:17.664Z,2.10
2022-10-09T17:06:19.747Z,2.40
2022-10-09T17:09:13.693Z,2.30
2022-10-09T17:11:59.559Z,3.30
2022-10-09T17:14:46.284Z,4.85
2022-10-09T17:17:31.785Z,3.28
2022-10-09T17:20:17.232Z,5.80
2022-10-09T17:23:03.237Z,4.22
2022-10-09T17:25:48.895Z,3.47
2022-10-09T17:28:34.802Z,3.08
2022-10-09T17:31:23.399Z,2.95
2022-10-09T17:34:08.929Z,2.70
2022-10-09T17:36:54.601Z,2.67
2022-10-09T17:39:42.174Z,2.88
2022-10-09T17:42:29.148Z,2.90
2022-10-09T17:45:14.438Z,2.92
2022-10-09T17:47:59.965Z,3.03
2022-10-09T17:50:56.951Z,3.05
2022-10-09T17:53:42.306Z,2.97
2022-10-09T17:56:28.706Z,3.15
2022-10-09T17:59:15.681Z,2.97
2022-10-09T18:02:01.415Z,3.25
2022-10-09T18:04:46.840Z,3.42
2022-10-09T18:07:32.439Z,2.95
2022-10-09T18:10:17.885Z,4.00
2022-10-09T18:13:04.631Z,3.05
2022-10-09T18:15:50.185Z,3.13
2022-10-09T18:18:36.229Z,2.83
2022-10-09T18:21:21.679Z,3.30
2022-10-09T18:24:07.224Z,3.55
2022-10-09T18:26:52.876Z,2.80
2022-10-09T18:29:38.081Z,3.10
2022-10-09T18:32:23.708Z,3.17
2022-10-09T18:35:09.426Z,3.22
2022-10-09T18:37:54.666Z,3.45
2022-10-09T18:40:45.594Z,3.58
2022-10-09T18:43:32.307Z,3.72
2022-10-09T18:46:20.946Z,3.28
2022-10-09T18:49:11.837Z,2.75
2022-10-09T18:51:58.928Z,3.20
2022-10-09T18:54:47.651Z,3.33
2022-10-09T18:57:34.326Z,3.22
2022-10-09T19:00:19.865Z,3.30
2022-10-09T19:03:05.587Z,3.47
2022-10-09T19:05:50.979Z,3.47
2022-10-09T19:08:37.011Z,3.10
2022-10-09T19:11:22.533Z,3.78
2022-10-09T19:14:08.062Z,3.53
2022-10-09T19:16:54.017Z,3.78
2022-10-09T19:19:40.037Z,3.65
2022-10-09T19:22:25.307Z,3.60
2022-10-09T19:25:11.224Z,3.50
2022-10-09T19:27:56.589Z,3.70
2022-10-09T19:30:43.122Z,3.65
2022-10-09T19:33:28.924Z,3.38
2022-10-09T19:36:14.566Z,3.50
2022-10-09T19:39:01.132Z,3.28
2022-10-09T19:41:48.724Z,3.42
2022-10-09T19:44:34.043Z,3.70
2022-10-09T19:47:21.501Z,3.90
2022-10-09T19:50:07.112Z,4.00
2022-10-09T19:52:52.380Z,3.97
2022-10-09T19:55:39.363Z,4.32
2022-10-09T19:58:24.649Z,3.78
2022-10-09T20:01:11.794Z,4.00
2022-10-09T20:04:00.099Z,4.00
2022-10-09T20:06:47.388Z,4.38
2022-10-09T20:09:32.801Z,4.07
2022-10-09T20:12:19.338Z,4.22
2022-10-09T20:15:05.140Z,3.85
2022-10-09T20:17:50.590Z,4.35
2022-10-09T20:20:36.429Z,3.65
2022-10-09T20:23:21.733Z,3.72
2022-10-09T20:26:09.752Z,3.80
2022-10-09T20:28:55.487Z,4.20
2022-10-09T20:31:41.810Z,3.85
2022-10-09T20:34:27.874Z,4.25
2022-10-09T20:37:13.555Z,4.15
2022-10-09T20:39:58.966Z,4.35
2022-10-09T20:42:44.643Z,5.00
2022-10-09T20:45:30.252Z,4.43
2022-10-09T20:48:15.737Z,4.38
2022-10-09T20:51:01.845Z,4.50
2022-10-09T20:53:56.196Z,4.47
2022-10-09T20:56:41.752Z,5.22
2022-10-09T20:59:27.176Z,4.40
2022-10-09T21:02:15.848Z,3.78
2022-10-09T21:05:01.034Z,4.40
2022-10-09T21:07:46.664Z,3.95
2022-10-09T21:10:32.579Z,4.18
2022-10-09T21:13:18.288Z,4.32
2022-10-09T21:16:10.083Z,4.35
2022-10-09T21:19:01.276Z,4.70
2022-10-09T21:21:50.841Z,4.30
2022-10-09T21:24:37.304Z,4.32
2022-10-09T21:27:22.804Z,4.60
2022-10-09T21:30:09.151Z,4.57
2022-10-09T21:32:56.018Z,4.80
2022-10-09T21:35:44.200Z,4.40
2022-10-09T21:38:30.270Z,4.53
2022-10-09T21:41:15.724Z,4.40
2022-10-09T21:44:01.440Z,4.82
2022-10-09T21:46:46.684Z,4.78
2022-10-09T21:49:32.519Z,4.70
2022-10-09T21:52:18.013Z,4.18
2022-10-09T21:55:03.788Z,4.82
2022-10-09T21:57:49.763Z,4.82
2022-10-09T22:00:35.708Z,4.53
2022-10-09T22:03:21.268Z,4.28
2022-10-09T22:06:19.102Z,4.90
2022-10-09T22:09:04.782Z,4.40
2022-10-09T22:11:50.284Z,4.97
2022-10-09T22:14:35.804Z,4.55
2022-10-09T22:17:21.533Z,4.90
2022-10-09T22:20:07.090Z,4.97
2022-10-09T22:22:52.968Z,4.78
2022-10-09T22:25:39.093Z,5.18
2022-10-09T22:28:24.614Z,4.95
2022-10-09T22:31:19.279Z,4.38
2022-10-09T22:34:04.915Z,4.63
2022-10-09T22:36:50.521Z,4.68
2022-10-09T22:39:36.210Z,5.10
2022-10-09T22:42:21.847Z,4.63
2022-10-09T22:45:07.765Z,5.05
2022-10-09T22:47:52.789Z,5.20
2022-10-09T22:50:38.297Z,5.10
2022-10-09T22:53:23.771Z,5.07
2022-10-09T22:56:15.948Z,5.22
2022-10-09T22:59:01.928Z,5.75
2022-10-09T23:01:54.286Z,6.15
2022-10-09T23:04:39.880Z,5.40
2022-10-09T23:07:25.308Z,5.75
2022-10-09T23:10:10.875Z,5.90
2022-10-09T23:12:56.304Z,5.22
2022-10-09T23:15:41.884Z,6.20
2022-10-09T23:18:27.882Z,5.88
2022-10-09T23:21:16.197Z,5.40
2022-10-09T23:24:01.957Z,5.95
2022-10-09T23:26:50.947Z,5.32
2022-10-09T23:29:36.422Z,5.70
2022-10-09T23:32:22.330Z,4.95
2022-10-09T23:35:08.413Z,4.97
2022-10-09T23:37:54.459Z,5.03
2022-10-09T23:40:39.693Z,4.75
2022-10-09T23:43:26.282Z,5.63
2022-10-09T23:46:14.909Z,4.57
2022-10-09T23:49:01.296Z,5.05
2022-10-09T23:51:47.760Z,5.90
2022-10-09T23:54:33.029Z,7.32
2022-10-09T23:57:19.077Z,8.05
